Free Spirit — ZGEU2 — position and weather

sailwx.info

Track history (hours):
 
Tides and Currents Weather Stations Pressure Air Temp Water Temp Dewpoint Dewpoint Depression Visibility Wind Speed Wind Dir Waves Ship Positions

Free Spirit

Last reported at 2018-Feb-19 21:24 UTC. Time now 2018-Feb-19 21:33 UTC.
Position N 25°47' W 080°11'.

Length 36 m.

Type: Pleasure craft. MMSI: 319120900.

Date/timePositionNaut miles runAvg speedWind from/ knotsBaromVisibWave heightAir tempDewpointWater temp
2018-Feb-19 21:24N 25°47' W 080°11'0 0.0
2018-Feb-19 21:00N 25°47' W 080°11'0 0.0
2018-Feb-19 20:30N 25°47' W 080°11'0 0.0
2018-Feb-19 20:00N 25°47' W 080°11'0 0.0
2018-Feb-19 19:30N 25°47' W 080°11'0 0.0
2018-Feb-19 19:00N 25°47' W 080°11'0 0.0
2018-Feb-19 18:24N 25°47' W 080°11'0 0.0
2018-Feb-19 17:54N 25°47' W 080°11'0 0.0
2018-Feb-19 17:27N 25°47' W 080°11'0 0.0
2018-Feb-19 17:00N 25°47' W 080°11'0 0.0
2018-Feb-19 16:30N 25°47' W 080°11'0 0.0
2018-Feb-19 16:00N 25°47' W 080°11'0 0.0
2018-Feb-19 15:30N 25°47' W 080°11'0 0.0
2018-Feb-19 14:54N 25°47' W 080°11'0 0.0
2018-Feb-19 14:24N 25°47' W 080°11'0 0.0
2018-Feb-19 14:00N 25°47' W 080°11'0 0.0
2018-Feb-19 13:27N 25°47' W 080°11'0 0.0
2018-Feb-19 13:00N 25°47' W 080°11'0 0.0
2018-Feb-19 12:30N 25°47' W 080°11'0 0.0
2018-Feb-19 12:00N 25°47' W 080°11'0 0.0
2018-Feb-19 11:30N 25°47' W 080°11'0 0.0
2018-Feb-19 10:57N 25°47' W 080°11'0 0.0
2018-Feb-19 10:30N 25°47' W 080°11'0 0.0
2018-Feb-19 09:57N 25°47' W 080°11'0 0.0
2018-Feb-19 09:27N 25°47' W 080°11'0 0.0
2018-Feb-19 08:57N 25°47' W 080°11'0 0.0
2018-Feb-19 08:30N 25°47' W 080°11'0 0.0
2018-Feb-19 08:00N 25°47' W 080°11'0 0.0
2018-Feb-19 07:30N 25°47' W 080°11'0 0.0
2018-Feb-19 07:00N 25°47' W 080°11'0 0.0
2018-Feb-19 06:30N 25°47' W 080°11'0 0.0
2018-Feb-19 06:00N 25°47' W 080°11'0 0.0
2018-Feb-19 05:30N 25°47' W 080°11'0 0.0
2018-Feb-19 05:00N 25°47' W 080°11'0 0.0
2018-Feb-19 04:30N 25°47' W 080°11'0 0.0
2018-Feb-19 04:00N 25°47' W 080°11'0 0.0
2018-Feb-19 03:30N 25°47' W 080°11'0 0.0
2018-Feb-19 02:54N 25°47' W 080°11'0 0.0
2018-Feb-19 02:30N 25°47' W 080°11'2 4.1
2018-Feb-19 02:00N 25°46' W 080°09'1 1.3
2018-Feb-19 01:19N 25°47' W 080°10'1 2.7
2018-Feb-19 00:59N 25°46' W 080°09'816.2
2018-Feb-19 00:28N 25°54' W 080°05'1325.9
2018-Feb-18 23:59N 26°07' W 080°04'3 1.4
2018-Feb-18 21:35N 26°06' W 080°07'1 2.8
2018-Feb-18 21:21N 26°05' W 080°07'2 6.5
2018-Feb-18 21:00N 26°03' W 080°07'3 5.1
2018-Feb-18 20:30N 26°01' W 080°07'3 6.2
2018-Feb-18 19:59N 25°57' W 080°08'3 6.4
2018-Feb-18 19:30N 25°54' W 080°08'3 6.7
2018-Feb-18 18:59N 25°51' W 080°09'3 5.5
2018-Feb-18 18:30N 25°48' W 080°09'2 3.6
2018-Feb-18 18:00N 25°47' W 080°10'0 0.0
2018-Feb-18 17:30N 25°47' W 080°10'0 0.0
2018-Feb-18 17:00N 25°47' W 080°10'0 0.1
2018-Feb-18 16:30N 25°47' W 080°10'3 6.1
2018-Feb-18 15:57N 25°50' W 080°11'3 6.1
2018-Feb-18 15:30N 25°47' W 080°11'0 0.0
2018-Feb-18 15:00N 25°47' W 080°11'0 0.0
2018-Feb-18 14:30N 25°47' W 080°11'0 0.0
2018-Feb-18 14:00N 25°47' W 080°11'0 0.0
2018-Feb-18 13:30N 25°47' W 080°11'0 0.0
2018-Feb-18 13:00N 25°47' W 080°11'0 0.0
2018-Feb-18 12:30N 25°47' W 080°11'0 0.0
2018-Feb-18 12:00N 25°47' W 080°11'0 0.0
2018-Feb-18 11:30N 25°47' W 080°11'0 0.0
2018-Feb-18 10:51N 25°47' W 080°11'0 0.0
2018-Feb-18 10:30N 25°47' W 080°11'0 0.0
2018-Feb-18 10:00N 25°47' W 080°11'0 0.0
2018-Feb-18 09:27N 25°47' W 080°11'0 0.0
2018-Feb-18 09:00N 25°47' W 080°11'0 0.0
2018-Feb-18 08:27N 25°47' W 080°11'0 0.0
2018-Feb-18 07:54N 25°47' W 080°11'0 0.0
2018-Feb-18 07:27N 25°47' W 080°11'0 0.0
2018-Feb-18 07:00N 25°47' W 080°11'0 0.0
2018-Feb-18 06:30N 25°47' W 080°11'0 0.0
2018-Feb-18 05:57N 25°47' W 080°11'0 0.0
2018-Feb-18 05:27N 25°47' W 080°11'0 0.0
2018-Feb-18 04:57N 25°47' W 080°11'0 0.0
2018-Feb-18 04:27N 25°47' W 080°11'0 0.0
2018-Feb-18 03:57N 25°47' W 080°11'0 0.0
2018-Feb-18 03:30N 25°47' W 080°11'0 0.0
2018-Feb-18 03:00N 25°47' W 080°11'0 0.0
2018-Feb-18 02:30N 25°47' W 080°11'0 0.0
2018-Feb-18 02:00N 25°47' W 080°11'0 0.0
2018-Feb-18 01:30N 25°47' W 080°11'0 0.0
2018-Feb-18 01:00N 25°47' W 080°11'0 0.0
2018-Feb-18 00:30N 25°47' W 080°11'0 0.0
2018-Feb-18 00:00N 25°47' W 080°11'0 0.0
2018-Feb-17 23:30N 25°47' W 080°11'0 0.0
2018-Feb-17 23:00N 25°47' W 080°11'0 0.0
2018-Feb-17 22:30N 25°47' W 080°11'0 0.0
2018-Feb-17 22:00N 25°47' W 080°11'0 0.0
2018-Feb-17 21:30N 25°47' W 080°11'0 0.0
2018-Feb-17 21:00N 25°47' W 080°11'0 0.0
2018-Feb-17 20:30N 25°47' W 080°11'0 0.0
2018-Feb-17 20:00N 25°47' W 080°11'0 0.0
2018-Feb-17 19:21N 25°47' W 080°11'0 0.0
2018-Feb-17 18:57N 25°47' W 080°11'0 0.0
2018-Feb-17 18:30N 25°47' W 080°11'0 0.0
2018-Feb-17 18:00N 25°47' W 080°11'0 0.0
2018-Feb-17 17:30N 25°47' W 080°11'0 0.0
2018-Feb-17 16:57N 25°47' W 080°11'0 0.0
2018-Feb-17 16:30N 25°47' W 080°11'0 0.0
2018-Feb-17 16:00N 25°47' W 080°11'0 0.0
2018-Feb-17 15:24N 25°47' W 080°11'0 0.0
2018-Feb-17 15:00N 25°47' W 080°11'0 0.0
2018-Feb-17 14:30N 25°47' W 080°11'0 0.0
2018-Feb-17 14:00N 25°47' W 080°11'0 0.0
2018-Feb-17 13:24N 25°47' W 080°11'0 0.0
2018-Feb-17 13:00N 25°47' W 080°11'0 0.0
2018-Feb-17 12:30N 25°47' W 080°11'0 0.0
2018-Feb-17 12:00N 25°47' W 080°11'0 0.0
2018-Feb-17 11:30N 25°47' W 080°11'0 0.0
2018-Feb-17 10:57N 25°47' W 080°11'0 0.0
2018-Feb-17 10:30N 25°47' W 080°11'0 0.0
2018-Feb-17 10:00N 25°47' W 080°11'0 0.0
2018-Feb-17 09:30N 25°47' W 080°11'0 0.0
2018-Feb-17 09:00N 25°47' W 080°11'0 0.0
2018-Feb-17 08:27N 25°47' W 080°11'0 0.0
2018-Feb-17 08:00N 25°47' W 080°11'0 0.0
2018-Feb-17 07:30N 25°47' W 080°11'0 0.0
2018-Feb-17 07:00N 25°47' W 080°11'0 0.0
2018-Feb-17 06:30N 25°47' W 080°11'0 0.0
2018-Feb-17 05:57N 25°47' W 080°11'0 0.0
2018-Feb-17 05:27N 25°47' W 080°11'2 3.6
2018-Feb-17 05:00N 25°46' W 080°09'0 0.9
2018-Feb-17 04:28N 25°47' W 080°10'0 0.0
2018-Feb-17 03:55N 25°47' W 080°10'0 0.0
2018-Feb-17 03:28N 25°47' W 080°10'0 0.0
2018-Feb-17 02:55N 25°47' W 080°10'0 0.0
2018-Feb-17 02:28N 25°47' W 080°10'0 0.0
2018-Feb-17 01:55N 25°47' W 080°10'0 0.0
2018-Feb-17 01:19N 25°47' W 080°10'0 0.1
2018-Feb-17 00:58N 25°47' W 080°10'1 1.4
2018-Feb-17 00:30N 25°46' W 080°10'2 1.7
2018-Feb-16 23:27N 25°45' W 080°11'3 6.7
2018-Feb-16 23:00N 25°48' W 080°11'3 6.9
2018-Feb-16 22:30N 25°51' W 080°10'2 3.6
2018-Feb-16 21:59N 25°52' W 080°09'0 0.0
2018-Feb-16 21:29N 25°52' W 080°09'0 0.0
2018-Feb-16 20:56N 25°52' W 080°09'0 0.0
2018-Feb-16 20:29N 25°52' W 080°09'0 0.0
2018-Feb-16 19:46N 25°52' W 080°09'1 4.4
2018-Feb-16 19:30N 25°51' W 080°09'1 2.2
2018-Feb-16 18:59N 25°50' W 080°08'3 5.5
2018-Feb-16 18:29N 25°47' W 080°09'1 1.5
2018-Feb-16 17:56N 25°47' W 080°10'0 0.0
2018-Feb-16 17:29N 25°47' W 080°10'0 0.0
2018-Feb-16 16:59N 25°47' W 080°10'0 0.2
2018-Feb-16 16:30N 25°47' W 080°10'1 2.3
2018-Feb-16 15:58N 25°47' W 080°11'0 0.0
2018-Feb-16 15:28N 25°47' W 080°11'0 0.0
2018-Feb-16 14:58N 25°47' W 080°11'0 0.0
2018-Feb-16 14:28N 25°47' W 080°11'0 0.0
2018-Feb-16 13:58N 25°47' W 080°11'0 0.0
2018-Feb-16 13:28N 25°47' W 080°11'0 0.0
2018-Feb-16 12:58N 25°47' W 080°11'0 0.0
2018-Feb-16 12:25N 25°47' W 080°11'0 0.0
2018-Feb-16 11:58N 25°47' W 080°11'0 0.0
2018-Feb-16 11:28N 25°47' W 080°11'0 0.0
2018-Feb-16 10:58N 25°47' W 080°11'0 0.0
2018-Feb-16 10:28N 25°47' W 080°11'0 0.0
2018-Feb-16 09:58N 25°47' W 080°11'0 0.0
2018-Feb-16 09:28N 25°47' W 080°11'0 0.0
2018-Feb-16 08:52N 25°47' W 080°11'0 0.9
2018-Feb-16 08:30N 25°47' W 080°11'1 1.7
2018-Feb-16 08:00N 25°47' W 080°10'0 0.0
2018-Feb-16 07:27N 25°47' W 080°10'0 0.0
2018-Feb-16 07:00N 25°47' W 080°10'0 0.0
2018-Feb-16 06:30N 25°47' W 080°10'0 0.0
2018-Feb-16 06:00N 25°47' W 080°10'0 0.0
2018-Feb-16 05:30N 25°47' W 080°10'0 0.0
2018-Feb-16 04:54N 25°47' W 080°10'0 0.0
2018-Feb-16 04:30N 25°47' W 080°10'0 0.0
2018-Feb-16 04:00N 25°47' W 080°10'0 0.0
2018-Feb-16 03:30N 25°47' W 080°10'0 0.0
2018-Feb-16 03:00N 25°47' W 080°10'0 0.0
2018-Feb-16 02:27N 25°47' W 080°10'0 0.0
2018-Feb-16 02:00N 25°47' W 080°10'0 0.0
2018-Feb-16 01:27N 25°47' W 080°10'0 0.0
2018-Feb-16 01:00N 25°47' W 080°10'0 0.0
2018-Feb-16 00:30N 25°47' W 080°10'0 0.0
2018-Feb-16 00:00N 25°47' W 080°10'0 0.0
2018-Feb-15 23:27N 25°47' W 080°10'0 0.0
2018-Feb-15 22:57N 25°47' W 080°10'0 0.0
2018-Feb-15 22:30N 25°47' W 080°10'0 0.0
2018-Feb-15 22:00N 25°47' W 080°10'0 0.0
2018-Feb-15 21:30N 25°47' W 080°10'0 0.0
2018-Feb-15 21:00N 25°47' W 080°10'0 0.0
2018-Feb-15 20:30N 25°47' W 080°10'0 0.0
2018-Feb-15 20:00N 25°47' W 080°10'0 0.0
2018-Feb-15 19:30N 25°47' W 080°10'0 0.0
2018-Feb-15 19:00N 25°47' W 080°10'0 0.0
2018-Feb-15 18:30N 25°47' W 080°10'0 0.4
2018-Feb-15 18:00N 25°47' W 080°09'611.7
2018-Feb-15 17:28N 25°52' W 080°06'4 8.7
2018-Feb-15 16:57N 25°57' W 080°08'1 1.9
2018-Feb-15 16:28N 25°57' W 080°08'0 0.0
2018-Feb-15 15:55N 25°57' W 080°08'0 0.0
2018-Feb-15 15:28N 25°57' W 080°08'0 0.0
2018-Feb-15 14:58N 25°57' W 080°08'0 0.0
2018-Feb-15 14:28N 25°57' W 080°08'0 0.0
2018-Feb-15 13:58N 25°57' W 080°08'0 0.0
2018-Feb-15 13:28N 25°57' W 080°08'0 0.0
2018-Feb-15 12:58N 25°57' W 080°08'0 0.0
2018-Feb-15 12:16N 25°57' W 080°08'0 0.0
2018-Feb-15 11:58N 25°57' W 080°08'0 0.0
2018-Feb-15 11:19N 25°57' W 080°08'0 0.0
2018-Feb-15 10:58N 25°57' W 080°08'0 0.0
2018-Feb-15 10:16N 25°57' W 080°08'0 0.0
2018-Feb-15 09:52N 25°57' W 080°08'0 0.0
2018-Feb-15 09:22N 25°57' W 080°08'0 0.0
2018-Feb-15 08:52N 25°57' W 080°08'0 0.0
2018-Feb-15 08:16N 25°57' W 080°08'0 0.0
2018-Feb-15 07:52N 25°57' W 080°08'0 0.0
2018-Feb-15 07:22N 25°57' W 080°08'0 0.0
2018-Feb-15 06:55N 25°57' W 080°08'0 0.0
2018-Feb-15 06:25N 25°57' W 080°08'0 0.0
2018-Feb-15 05:52N 25°57' W 080°08'0 0.0
2018-Feb-15 05:25N 25°57' W 080°08'0 0.0
2018-Feb-15 04:55N 25°57' W 080°08'0 0.0
2018-Feb-15 04:25N 25°57' W 080°08'0 0.0
2018-Feb-15 03:58N 25°57' W 080°08'0 0.0
2018-Feb-15 03:28N 25°57' W 080°08'0 0.0
2018-Feb-15 02:58N 25°57' W 080°08'0 0.0
2018-Feb-15 02:28N 25°57' W 080°08'0 0.0
2018-Feb-15 01:58N 25°57' W 080°08'0 0.0
2018-Feb-15 01:28N 25°57' W 080°08'0 0.0
2018-Feb-15 00:58N 25°57' W 080°08'0 0.0
2018-Feb-15 00:28N 25°57' W 080°08'0 0.0
2018-Feb-14 23:58N 25°57' W 080°08'0 0.0
2018-Feb-14 23:28N 25°57' W 080°08'0 0.0
2018-Feb-14 22:58N 25°57' W 080°08'0 0.0
2018-Feb-14 22:16N 25°57' W 080°08'0 0.0
2018-Feb-14 21:58N 25°57' W 080°08'0 0.0
2018-Feb-14 21:28N 25°57' W 080°08'0 0.0
2018-Feb-14 20:49N 25°57' W 080°08'0 0.0
2018-Feb-14 20:19N 25°57' W 080°08'0 0.0
2018-Feb-14 19:49N 25°57' W 080°08'0 0.0
2018-Feb-14 19:22N 25°57' W 080°08'0 0.0
2018-Feb-14 18:52N 25°57' W 080°08'0 0.0
2018-Feb-14 18:22N 25°57' W 080°08'0 0.0
2018-Feb-14 17:49N 25°57' W 080°08'0 0.0
2018-Feb-14 17:25N 25°57' W 080°08'0 0.0
2018-Feb-14 16:52N 25°57' W 080°08'0 0.0
2018-Feb-14 16:25N 25°57' W 080°08'0 0.0
2018-Feb-14 15:55N 25°57' W 080°08'0 0.0
2018-Feb-14 15:22N 25°57' W 080°08'0 0.0
2018-Feb-14 14:52N 25°57' W 080°08'0 0.0
2018-Feb-14 14:25N 25°57' W 080°08'0 0.0
2018-Feb-14 13:58N 25°57' W 080°08'0 0.0
2018-Feb-14 13:28N 25°57' W 080°08'0 0.0
2018-Feb-14 12:58N 25°57' W 080°08'0 0.0
2018-Feb-14 12:28N 25°57' W 080°08'0 0.0
2018-Feb-14 11:58N 25°57' W 080°08'0 0.0
2018-Feb-14 11:25N 25°57' W 080°08'0 0.0
2018-Feb-14 10:58N 25°57' W 080°08'0 0.0
2018-Feb-14 10:28N 25°57' W 080°08'0 0.0
2018-Feb-14 09:58N 25°57' W 080°08'0 0.0
2018-Feb-14 09:28N 25°57' W 080°08'0 0.0
2018-Feb-14 08:58N 25°57' W 080°08'0 0.0
2018-Feb-14 08:28N 25°57' W 080°08'0 0.0
2018-Feb-14 07:58N 25°57' W 080°08'0 0.0
2018-Feb-14 07:28N 25°57' W 080°08'0 0.0
2018-Feb-14 06:46N 25°57' W 080°08'0 0.0
2018-Feb-14 06:19N 25°57' W 080°08'0 0.0
2018-Feb-14 05:37N 25°57' W 080°08'0 0.0
2018-Feb-14 05:22N 25°57' W 080°08'0 0.0
2018-Feb-14 04:52N 25°57' W 080°08'0 0.0
2018-Feb-14 04:19N 25°57' W 080°08'0 0.0
2018-Feb-14 03:52N 25°57' W 080°08'0 0.0
2018-Feb-14 03:22N 25°57' W 080°08'0 0.0
2018-Feb-14 02:52N 25°57' W 080°08'0 0.0
2018-Feb-14 02:25N 25°57' W 080°08'0 0.0
2018-Feb-14 01:55N 25°57' W 080°08'0 0.0
2018-Feb-14 01:25N 25°57' W 080°08'0 0.0
2018-Feb-14 00:55N 25°57' W 080°08'0 0.0
2018-Feb-14 00:25N 25°57' W 080°08'0 0.0
2018-Feb-13 23:58N 25°57' W 080°08'0 0.0
2018-Feb-13 23:25N 25°57' W 080°08'0 0.0
2018-Feb-13 22:58N 25°57' W 080°08'0 0.0
2018-Feb-13 22:28N 25°57' W 080°08'0 0.0
2018-Feb-13 21:58N 25°57' W 080°08'0 0.0
2018-Feb-13 21:28N 25°57' W 080°08'0 0.0
2018-Feb-13 20:58N 25°57' W 080°08'0 0.0
2018-Feb-13 20:28N 25°57' W 080°08'0 0.0
2018-Feb-13 19:58N 25°57' W 080°08'0 0.0
2018-Feb-13 19:28N 25°57' W 080°08'0 0.0
2018-Feb-13 18:58N 25°57' W 080°08'0 0.0
2018-Feb-13 18:28N 25°57' W 080°08'0 0.0
2018-Feb-13 17:58N 25°57' W 080°08'0 0.0
2018-Feb-13 17:16N 25°57' W 080°08'0 0.0
2018-Feb-13 16:49N 25°57' W 080°08'0 0.0
2018-Feb-13 16:19N 25°57' W 080°08'0 0.0
2018-Feb-13 15:52N 25°57' W 080°08'0 0.0
2018-Feb-13 15:22N 25°57' W 080°08'0 0.0
2018-Feb-13 14:52N 25°57' W 080°08'0 0.0
2018-Feb-13 14:22N 25°57' W 080°08'0 0.0
2018-Feb-13 13:52N 25°57' W 080°08'0 0.0
2018-Feb-13 13:25N 25°57' W 080°08'0 0.0
2018-Feb-13 12:55N 25°57' W 080°08'0 0.0
2018-Feb-13 12:25N 25°57' W 080°08'0 0.0
2018-Feb-13 11:52N 25°57' W 080°08'0 0.0
2018-Feb-13 11:25N 25°57' W 080°08'0 0.0
2018-Feb-13 10:55N 25°57' W 080°08'0 0.0
2018-Feb-13 10:25N 25°57' W 080°08'0 0.0
2018-Feb-13 09:55N 25°57' W 080°08'0 0.0
2018-Feb-13 09:28N 25°57' W 080°08'0 0.0
2018-Feb-13 08:58N 25°57' W 080°08'0 0.0
2018-Feb-13 08:28N 25°57' W 080°08'0 0.0
2018-Feb-13 07:58N 25°57' W 080°08'0 0.0
2018-Feb-13 07:28N 25°57' W 080°08'0 0.0
2018-Feb-13 06:58N 25°57' W 080°08'0 0.0
2018-Feb-13 06:28N 25°57' W 080°08'0 0.0
2018-Feb-13 05:58N 25°57' W 080°08'0 0.0
2018-Feb-13 05:16N 25°57' W 080°08'0 0.0
2018-Feb-13 04:49N 25°57' W 080°08'0 0.0
2018-Feb-13 04:28N 25°57' W 080°08'0 0.0
2018-Feb-13 03:58N 25°57' W 080°08'0 0.0
2018-Feb-13 03:19N 25°57' W 080°08'0 0.0
2018-Feb-13 02:49N 25°57' W 080°08'0 0.0
2018-Feb-13 02:19N 25°57' W 080°08'0 0.0
2018-Feb-13 01:52N 25°57' W 080°08'0 0.0
2018-Feb-13 01:22N 25°57' W 080°08'0 0.0
2018-Feb-13 00:52N 25°57' W 080°08'0 0.0
2018-Feb-13 00:22N 25°57' W 080°08'0 0.0
2018-Feb-12 23:52N 25°57' W 080°08'0 0.0
2018-Feb-12 23:25N 25°57' W 080°08'0 0.0
2018-Feb-12 22:55N 25°57' W 080°08'0 0.0
2018-Feb-12 22:25N 25°57' W 080°08'0 0.0
2018-Feb-12 21:55N 25°57' W 080°08'0 0.0
2018-Feb-12 21:25N 25°57' W 080°08'0 0.0
2018-Feb-12 20:52N 25°57' W 080°08'0 0.0
2018-Feb-12 20:28N 25°57' W 080°08'0 0.0
2018-Feb-12 19:58N 25°57' W 080°08'0 0.1
2018-Feb-12 19:30N 25°57' W 080°08'3 6.0
2018-Feb-12 19:00N 25°54' W 080°08'4 8.9
2018-Feb-12 18:31N 25°51' W 080°10'3 6.9
2018-Feb-12 18:01N 25°47' W 080°11'0 0.5
2018-Feb-12 17:28N 25°47' W 080°11'0 0.0
2018-Feb-12 16:52N 25°47' W 080°11'0 0.0
2018-Feb-12 16:28N 25°47' W 080°11'0 0.0
2018-Feb-12 15:58N 25°47' W 080°11'0 0.0
2018-Feb-12 15:13N 25°47' W 080°11'0 0.0
2018-Feb-12 14:58N 25°47' W 080°11'0 0.0
2018-Feb-12 14:25N 25°47' W 080°11'0 0.0
2018-Feb-12 13:55N 25°47' W 080°11'0 0.0
2018-Feb-12 13:28N 25°47' W 080°11'0 0.0
2018-Feb-12 12:55N 25°47' W 080°11'0 0.0
2018-Feb-12 12:19N 25°47' W 080°11'0 0.0
2018-Feb-12 11:58N 25°47' W 080°11'0 0.0
2018-Feb-12 11:28N 25°47' W 080°11'0 0.0
2018-Feb-12 10:58N 25°47' W 080°11'0 0.0
2018-Feb-12 10:25N 25°47' W 080°11'0 0.0
2018-Feb-12 09:49N 25°47' W 080°11'0 0.0
2018-Feb-12 09:25N 25°47' W 080°11'0 0.0
2018-Feb-12 08:49N 25°47' W 080°11'0 0.0
2018-Feb-12 08:22N 25°47' W 080°11'0 0.0
2018-Feb-12 07:58N 25°47' W 080°11'0 0.0
2018-Feb-12 07:19N 25°47' W 080°11'0 0.0
2018-Feb-12 06:58N 25°47' W 080°11'0 0.0
2018-Feb-12 06:25N 25°47' W 080°11'0 0.0
2018-Feb-12 05:52N 25°47' W 080°11'0 0.0
2018-Feb-12 05:28N 25°47' W 080°11'0 0.0
2018-Feb-12 04:28N 25°47' W 080°11'0 0.0
2018-Feb-12 03:55N 25°47' W 080°11'0 0.0
2018-Feb-12 03:25N 25°47' W 080°11'6 9.4
2018-Feb-12 02:49N 25°53' W 080°11'616.2
2018-Feb-12 02:28N 25°47' W 080°11'0 0.0
2018-Feb-12 01:46N 25°47' W 080°11'0 0.0
2018-Feb-12 01:25N 25°47' W 080°11'0 0.0
2018-Feb-12 00:49N 25°47' W 080°11'0 0.0
2018-Feb-12 00:25N 25°47' W 080°11'0 0.0
2018-Feb-11 23:55N 25°47' W 080°11'0 0.0
2018-Feb-11 23:28N 25°47' W 080°11'0 0.0
2018-Feb-11 22:55N 25°47' W 080°11'0 0.0
2018-Feb-11 22:25N 25°47' W 080°11'0 0.0
2018-Feb-11 21:34N 25°47' W 080°11'0 0.1
2018-Feb-11 21:28N 25°47' W 080°11'0 0.0
2018-Feb-11 20:52N 25°47' W 080°11'0 0.0
2018-Feb-11 20:28N 25°47' W 080°11'0 0.0
2018-Feb-11 19:58N 25°47' W 080°11'0 0.0
2018-Feb-11 19:25N 25°47' W 080°11'0 0.0
2018-Feb-11 18:55N 25°47' W 080°11'0 0.0
2018-Feb-11 18:28N 25°47' W 080°11'0 0.0
2018-Feb-11 17:28N 25°47' W 080°11'0 0.0
2018-Feb-11 16:46N 25°47' W 080°11'0 0.0
2018-Feb-11 16:22N 25°47' W 080°11'0 0.0
2018-Feb-11 14:55N 25°47' W 080°11'0 0.0
2018-Feb-11 14:28N 25°47' W 080°11'0 0.0
2018-Feb-11 13:55N 25°47' W 080°11'0 0.0
2018-Feb-11 13:28N 25°47' W 080°11'0 0.0
2018-Feb-11 12:58N 25°47' W 080°11'0 0.0
2018-Feb-11 12:25N 25°47' W 080°11'0 0.0
2018-Feb-11 11:55N 25°47' W 080°11'0 0.0
2018-Feb-11 11:22N 25°47' W 080°11'0 0.0
2018-Feb-11 10:55N 25°47' W 080°11'0 0.0
2018-Feb-11 10:28N 25°47' W 080°11'0 0.0
2018-Feb-11 09:55N 25°47' W 080°11'0 0.0
2018-Feb-11 09:28N 25°47' W 080°11'0 0.0
2018-Feb-11 08:58N 25°47' W 080°11'0 0.0
2018-Feb-11 08:25N 25°47' W 080°11'0 0.0
2018-Feb-11 07:55N 25°47' W 080°11'0 0.0
2018-Feb-11 07:16N 25°47' W 080°11'0 0.0
2018-Feb-11 06:58N 25°47' W 080°11'0 0.0
2018-Feb-11 06:25N 25°47' W 080°11'0 0.0
2018-Feb-11 05:55N 25°47' W 080°11'0 0.0
2018-Feb-11 05:19N 25°47' W 080°11'0 0.0
2018-Feb-11 04:49N 25°47' W 080°11'0 0.0
2018-Feb-11 04:28N 25°47' W 080°11'0 0.0
2018-Feb-11 03:49N 25°47' W 080°11'0 0.0
2018-Feb-11 03:28N 25°47' W 080°11'0 0.0
2018-Feb-11 02:58N 25°47' W 080°11'0 0.0
2018-Feb-11 02:13N 25°47' W 080°11'0 0.0
2018-Feb-11 01:52N 25°47' W 080°11'0 0.0
2018-Feb-11 01:25N 25°47' W 080°11'0 0.0
2018-Feb-11 00:49N 25°47' W 080°11'0 0.0
2018-Feb-11 00:19N 25°47' W 080°11'0 0.0
2018-Feb-10 23:46N 25°47' W 080°11'0 0.0
2018-Feb-10 23:10N 25°47' W 080°11'0 0.0
2018-Feb-10 22:55N 25°47' W 080°11'0 0.0
2018-Feb-10 21:34N 25°47' W 080°11'0 0.0
2018-Feb-10 21:13N 25°47' W 080°11'0 0.0
2018-Feb-10 20:58N 25°47' W 080°11'0 0.0
2018-Feb-10 20:28N 25°47' W 080°11'0 0.0
2018-Feb-10 19:55N 25°47' W 080°11'0 0.0
2018-Feb-10 19:28N 25°47' W 080°11'0 0.0
2018-Feb-10 18:55N 25°47' W 080°11'0 0.0
2018-Feb-10 18:19N 25°47' W 080°11'0 0.0
2018-Feb-10 17:58N 25°47' W 080°11'0 0.0
2018-Feb-10 17:28N 25°47' W 080°11'0 0.0
2018-Feb-10 16:52N 25°47' W 080°11'0 0.0
2018-Feb-10 16:25N 25°47' W 080°11'0 0.0
2018-Feb-10 15:52N 25°47' W 080°11'0 0.0
2018-Feb-10 15:28N 25°47' W 080°11'0 0.0
2018-Feb-10 14:58N 25°47' W 080°11'0 0.0
2018-Feb-10 14:28N 25°47' W 080°11'0 0.0
2018-Feb-10 13:58N 25°47' W 080°11'0 0.0
2018-Feb-10 13:28N 25°47' W 080°11'0 0.0
2018-Feb-10 12:55N 25°47' W 080°11'0 0.0
2018-Feb-10 12:28N 25°47' W 080°11'0 0.0
2018-Feb-10 11:58N 25°47' W 080°11'0 0.0
2018-Feb-10 11:28N 25°47' W 080°11'0 0.0
2018-Feb-10 10:58N 25°47' W 080°11'0 0.0
2018-Feb-10 10:13N 25°47' W 080°11'0 0.0
2018-Feb-10 09:49N 25°47' W 080°11'0 0.0
2018-Feb-10 09:25N 25°47' W 080°11'0 0.0
2018-Feb-10 08:55N 25°47' W 080°11'0 0.0
2018-Feb-10 08:25N 25°47' W 080°11'0 0.0
2018-Feb-10 07:58N 25°47' W 080°11'0 0.0
2018-Feb-10 07:25N 25°47' W 080°11'0 0.0
2018-Feb-10 06:58N 25°47' W 080°11'0 0.0
2018-Feb-10 06:25N 25°47' W 080°11'0 0.0
2018-Feb-10 05:58N 25°47' W 080°11'0 0.0
2018-Feb-10 05:28N 25°47' W 080°11'0 0.0
2018-Feb-10 04:52N 25°47' W 080°11'0 0.0
2018-Feb-10 04:25N 25°47' W 080°11'0 0.0
2018-Feb-10 03:55N 25°47' W 080°11'0 0.0
2018-Feb-10 03:25N 25°47' W 080°11'0 0.0
2018-Feb-10 02:55N 25°47' W 080°11'0 0.0
2018-Feb-10 02:25N 25°47' W 080°11'0 0.0
2018-Feb-10 01:58N 25°47' W 080°11'0 0.0
2018-Feb-10 01:28N 25°47' W 080°11'0 0.0
2018-Feb-10 00:58N 25°47' W 080°11'0 0.0
2018-Feb-10 00:28N 25°47' W 080°11'0 0.0
2018-Feb-09 23:58N 25°47' W 080°11'0 0.0
2018-Feb-09 23:25N 25°47' W 080°11'0 0.0
2018-Feb-09 22:58N 25°47' W 080°11'0 0.0
2018-Feb-09 22:43N 25°47' W 080°11'  
Track history (hours):
 
Tides and Currents Weather Stations Pressure Air Temp Water Temp Dewpoint Dewpoint Depression Visibility Wind Speed Wind Dir Waves Ship Positions

Free Spirit

Last reported at 2018-Feb-19 21:24 UTC. Time now 2018-Feb-19 21:33 UTC.
Position N 25°47' W 080°11'.

Length 36 m.

Type: Pleasure craft. MMSI: 319120900.

Date/timePositionNaut miles runAvg speedWind from/ knotsBaromVisibWave heightAir tempDewpointWater temp
2018-Feb-19 21:24N 25°47' W 080°11'0 0.0
2018-Feb-19 21:00N 25°47' W 080°11'0 0.0
2018-Feb-19 20:30N 25°47' W 080°11'0 0.0
2018-Feb-19 20:00N 25°47' W 080°11'0 0.0
2018-Feb-19 19:30N 25°47' W 080°11'0 0.0
2018-Feb-19 19:00N 25°47' W 080°11'0 0.0
2018-Feb-19 18:24N 25°47' W 080°11'0 0.0
2018-Feb-19 17:54N 25°47' W 080°11'0 0.0
2018-Feb-19 17:27N 25°47' W 080°11'0 0.0
2018-Feb-19 17:00N 25°47' W 080°11'0 0.0
2018-Feb-19 16:30N 25°47' W 080°11'0 0.0
2018-Feb-19 16:00N 25°47' W 080°11'0 0.0
2018-Feb-19 15:30N 25°47' W 080°11'0 0.0
2018-Feb-19 14:54N 25°47' W 080°11'0 0.0
2018-Feb-19 14:24N 25°47' W 080°11'0 0.0
2018-Feb-19 14:00N 25°47' W 080°11'0 0.0
2018-Feb-19 13:27N 25°47' W 080°11'0 0.0
2018-Feb-19 13:00N 25°47' W 080°11'0 0.0
2018-Feb-19 12:30N 25°47' W 080°11'0 0.0
2018-Feb-19 12:00N 25°47' W 080°11'0 0.0
2018-Feb-19 11:30N 25°47' W 080°11'0 0.0
2018-Feb-19 10:57N 25°47' W 080°11'0 0.0
2018-Feb-19 10:30N 25°47' W 080°11'0 0.0
2018-Feb-19 09:57N 25°47' W 080°11'0 0.0
2018-Feb-19 09:27N 25°47' W 080°11'0 0.0
2018-Feb-19 08:57N 25°47' W 080°11'0 0.0
2018-Feb-19 08:30N 25°47' W 080°11'0 0.0
2018-Feb-19 08:00N 25°47' W 080°11'0 0.0
2018-Feb-19 07:30N 25°47' W 080°11'0 0.0
2018-Feb-19 07:00N 25°47' W 080°11'0 0.0
2018-Feb-19 06:30N 25°47' W 080°11'0 0.0
2018-Feb-19 06:00N 25°47' W 080°11'0 0.0
2018-Feb-19 05:30N 25°47' W 080°11'0 0.0
2018-Feb-19 05:00N 25°47' W 080°11'0 0.0
2018-Feb-19 04:30N 25°47' W 080°11'0 0.0
2018-Feb-19 04:00N 25°47' W 080°11'0 0.0
2018-Feb-19 03:30N 25°47' W 080°11'0 0.0
2018-Feb-19 02:54N 25°47' W 080°11'0 0.0
2018-Feb-19 02:30N 25°47' W 080°11'2 4.1
2018-Feb-19 02:00N 25°46' W 080°09'1 1.3
2018-Feb-19 01:19N 25°47' W 080°10'1 2.7
2018-Feb-19 00:59N 25°46' W 080°09'816.2
2018-Feb-19 00:28N 25°54' W 080°05'1325.9
2018-Feb-18 23:59N 26°07' W 080°04'3 1.4
2018-Feb-18 21:35N 26°06' W 080°07'1 2.8
2018-Feb-18 21:21N 26°05' W 080°07'2 6.5
2018-Feb-18 21:00N 26°03' W 080°07'3 5.1
2018-Feb-18 20:30N 26°01' W 080°07'3 6.2
2018-Feb-18 19:59N 25°57' W 080°08'3 6.4
2018-Feb-18 19:30N 25°54' W 080°08'3 6.7
2018-Feb-18 18:59N 25°51' W 080°09'3 5.5
2018-Feb-18 18:30N 25°48' W 080°09'2 3.6
2018-Feb-18 18:00N 25°47' W 080°10'0 0.0
2018-Feb-18 17:30N 25°47' W 080°10'0 0.0
2018-Feb-18 17:00N 25°47' W 080°10'0 0.1
2018-Feb-18 16:30N 25°47' W 080°10'3 6.1
2018-Feb-18 15:57N 25°50' W 080°11'3 6.1
2018-Feb-18 15:30N 25°47' W 080°11'0 0.0
2018-Feb-18 15:00N 25°47' W 080°11'0 0.0
2018-Feb-18 14:30N 25°47' W 080°11'0 0.0
2018-Feb-18 14:00N 25°47' W 080°11'0 0.0
2018-Feb-18 13:30N 25°47' W 080°11'0 0.0
2018-Feb-18 13:00N 25°47' W 080°11'0 0.0
2018-Feb-18 12:30N 25°47' W 080°11'0 0.0
2018-Feb-18 12:00N 25°47' W 080°11'0 0.0
2018-Feb-18 11:30N 25°47' W 080°11'0 0.0
2018-Feb-18 10:51N 25°47' W 080°11'0 0.0
2018-Feb-18 10:30N 25°47' W 080°11'0 0.0
2018-Feb-18 10:00N 25°47' W 080°11'0 0.0
2018-Feb-18 09:27N 25°47' W 080°11'0 0.0
2018-Feb-18 09:00N 25°47' W 080°11'0 0.0
2018-Feb-18 08:27N 25°47' W 080°11'0 0.0
2018-Feb-18 07:54N 25°47' W 080°11'0 0.0
2018-Feb-18 07:27N 25°47' W 080°11'0 0.0
2018-Feb-18 07:00N 25°47' W 080°11'0 0.0
2018-Feb-18 06:30N 25°47' W 080°11'0 0.0
2018-Feb-18 05:57N 25°47' W 080°11'0 0.0
2018-Feb-18 05:27N 25°47' W 080°11'0 0.0
2018-Feb-18 04:57N 25°47' W 080°11'0 0.0
2018-Feb-18 04:27N 25°47' W 080°11'0 0.0
2018-Feb-18 03:57N 25°47' W 080°11'0 0.0
2018-Feb-18 03:30N 25°47' W 080°11'0 0.0
2018-Feb-18 03:00N 25°47' W 080°11'0 0.0
2018-Feb-18 02:30N 25°47' W 080°11'0 0.0
2018-Feb-18 02:00N 25°47' W 080°11'0 0.0
2018-Feb-18 01:30N 25°47' W 080°11'0 0.0
2018-Feb-18 01:00N 25°47' W 080°11'0 0.0
2018-Feb-18 00:30N 25°47' W 080°11'0 0.0
2018-Feb-18 00:00N 25°47' W 080°11'0 0.0
2018-Feb-17 23:30N 25°47' W 080°11'0 0.0
2018-Feb-17 23:00N 25°47' W 080°11'0 0.0
2018-Feb-17 22:30N 25°47' W 080°11'0 0.0
2018-Feb-17 22:00N 25°47' W 080°11'0 0.0
2018-Feb-17 21:30N 25°47' W 080°11'0 0.0
2018-Feb-17 21:00N 25°47' W 080°11'0 0.0
2018-Feb-17 20:30N 25°47' W 080°11'0 0.0
2018-Feb-17 20:00N 25°47' W 080°11'0 0.0
2018-Feb-17 19:21N 25°47' W 080°11'0 0.0
2018-Feb-17 18:57N 25°47' W 080°11'0 0.0
2018-Feb-17 18:30N 25°47' W 080°11'0 0.0
2018-Feb-17 18:00N 25°47' W 080°11'0 0.0
2018-Feb-17 17:30N 25°47' W 080°11'0 0.0
2018-Feb-17 16:57N 25°47' W 080°11'0 0.0
2018-Feb-17 16:30N 25°47' W 080°11'0 0.0
2018-Feb-17 16:00N 25°47' W 080°11'0 0.0
2018-Feb-17 15:24N 25°47' W 080°11'0 0.0
2018-Feb-17 15:00N 25°47' W 080°11'0 0.0
2018-Feb-17 14:30N 25°47' W 080°11'0 0.0
2018-Feb-17 14:00N 25°47' W 080°11'0 0.0
2018-Feb-17 13:24N 25°47' W 080°11'0 0.0
2018-Feb-17 13:00N 25°47' W 080°11'0 0.0
2018-Feb-17 12:30N 25°47' W 080°11'0 0.0
2018-Feb-17 12:00N 25°47' W 080°11'0 0.0
2018-Feb-17 11:30N 25°47' W 080°11'0 0.0
2018-Feb-17 10:57N 25°47' W 080°11'0 0.0
2018-Feb-17 10:30N 25°47' W 080°11'0 0.0
2018-Feb-17 10:00N 25°47' W 080°11'0 0.0
2018-Feb-17 09:30N 25°47' W 080°11'0 0.0
2018-Feb-17 09:00N 25°47' W 080°11'0 0.0
2018-Feb-17 08:27N 25°47' W 080°11'0 0.0
2018-Feb-17 08:00N 25°47' W 080°11'0 0.0
2018-Feb-17 07:30N 25°47' W 080°11'0 0.0
2018-Feb-17 07:00N 25°47' W 080°11'0 0.0
2018-Feb-17 06:30N 25°47' W 080°11'0 0.0
2018-Feb-17 05:57N 25°47' W 080°11'0 0.0
2018-Feb-17 05:27N 25°47' W 080°11'2 3.6
2018-Feb-17 05:00N 25°46' W 080°09'0 0.9
2018-Feb-17 04:28N 25°47' W 080°10'0 0.0
2018-Feb-17 03:55N 25°47' W 080°10'0 0.0
2018-Feb-17 03:28N 25°47' W 080°10'0 0.0
2018-Feb-17 02:55N 25°47' W 080°10'0 0.0
2018-Feb-17 02:28N 25°47' W 080°10'0 0.0
2018-Feb-17 01:55N 25°47' W 080°10'0 0.0
2018-Feb-17 01:19N 25°47' W 080°10'0 0.1
2018-Feb-17 00:58N 25°47' W 080°10'1 1.4
2018-Feb-17 00:30N 25°46' W 080°10'2 1.7
2018-Feb-16 23:27N 25°45' W 080°11'3 6.7
2018-Feb-16 23:00N 25°48' W 080°11'3 6.9
2018-Feb-16 22:30N 25°51' W 080°10'2 3.6
2018-Feb-16 21:59N 25°52' W 080°09'0 0.0
2018-Feb-16 21:29N 25°52' W 080°09'0 0.0
2018-Feb-16 20:56N 25°52' W 080°09'0 0.0
2018-Feb-16 20:29N 25°52' W 080°09'0 0.0
2018-Feb-16 19:46N 25°52' W 080°09'1 4.4
2018-Feb-16 19:30N 25°51' W 080°09'1 2.2
2018-Feb-16 18:59N 25°50' W 080°08'3 5.5
2018-Feb-16 18:29N 25°47' W 080°09'1 1.5
2018-Feb-16 17:56N 25°47' W 080°10'0 0.0
2018-Feb-16 17:29N 25°47' W 080°10'0 0.0
2018-Feb-16 16:59N 25°47' W 080°10'0 0.2
2018-Feb-16 16:30N 25°47' W 080°10'1 2.3
2018-Feb-16 15:58N 25°47' W 080°11'0 0.0
2018-Feb-16 15:28N 25°47' W 080°11'0 0.0
2018-Feb-16 14:58N 25°47' W 080°11'0 0.0
2018-Feb-16 14:28N 25°47' W 080°11'0 0.0
2018-Feb-16 13:58N 25°47' W 080°11'0 0.0
2018-Feb-16 13:28N 25°47' W 080°11'0 0.0
2018-Feb-16 12:58N 25°47' W 080°11'0 0.0
2018-Feb-16 12:25N 25°47' W 080°11'0 0.0
2018-Feb-16 11:58N 25°47' W 080°11'0 0.0
2018-Feb-16 11:28N 25°47' W 080°11'0 0.0
2018-Feb-16 10:58N 25°47' W 080°11'0 0.0
2018-Feb-16 10:28N 25°47' W 080°11'0 0.0
2018-Feb-16 09:58N 25°47' W 080°11'0 0.0
2018-Feb-16 09:28N 25°47' W 080°11'0 0.0
2018-Feb-16 08:52N 25°47' W 080°11'0 0.9
2018-Feb-16 08:30N 25°47' W 080°11'1 1.7
2018-Feb-16 08:00N 25°47' W 080°10'0 0.0
2018-Feb-16 07:27N 25°47' W 080°10'0 0.0
2018-Feb-16 07:00N 25°47' W 080°10'0 0.0
2018-Feb-16 06:30N 25°47' W 080°10'0 0.0
2018-Feb-16 06:00N 25°47' W 080°10'0 0.0
2018-Feb-16 05:30N 25°47' W 080°10'0 0.0
2018-Feb-16 04:54N 25°47' W 080°10'0 0.0
2018-Feb-16 04:30N 25°47' W 080°10'0 0.0
2018-Feb-16 04:00N 25°47' W 080°10'0 0.0
2018-Feb-16 03:30N 25°47' W 080°10'0 0.0
2018-Feb-16 03:00N 25°47' W 080°10'0 0.0
2018-Feb-16 02:27N 25°47' W 080°10'0 0.0
2018-Feb-16 02:00N 25°47' W 080°10'0 0.0
2018-Feb-16 01:27N 25°47' W 080°10'0 0.0
2018-Feb-16 01:00N 25°47' W 080°10'0 0.0
2018-Feb-16 00:30N 25°47' W 080°10'0 0.0
2018-Feb-16 00:00N 25°47' W 080°10'0 0.0
2018-Feb-15 23:27N 25°47' W 080°10'0 0.0
2018-Feb-15 22:57N 25°47' W 080°10'0 0.0
2018-Feb-15 22:30N 25°47' W 080°10'0 0.0
2018-Feb-15 22:00N 25°47' W 080°10'0 0.0
2018-Feb-15 21:30N 25°47' W 080°10'0 0.0
2018-Feb-15 21:00N 25°47' W 080°10'0 0.0
2018-Feb-15 20:30N 25°47' W 080°10'0 0.0
2018-Feb-15 20:00N 25°47' W 080°10'0 0.0
2018-Feb-15 19:30N 25°47' W 080°10'0 0.0
2018-Feb-15 19:00N 25°47' W 080°10'0 0.0
2018-Feb-15 18:30N 25°47' W 080°10'0 0.4
2018-Feb-15 18:00N 25°47' W 080°09'611.7
2018-Feb-15 17:28N 25°52' W 080°06'4 8.7
2018-Feb-15 16:57N 25°57' W 080°08'1 1.9
2018-Feb-15 16:28N 25°57' W 080°08'0 0.0
2018-Feb-15 15:55N 25°57' W 080°08'0 0.0
2018-Feb-15 15:28N 25°57' W 080°08'0 0.0
2018-Feb-15 14:58N 25°57' W 080°08'0 0.0
2018-Feb-15 14:28N 25°57' W 080°08'0 0.0
2018-Feb-15 13:58N 25°57' W 080°08'0 0.0
2018-Feb-15 13:28N 25°57' W 080°08'0 0.0
2018-Feb-15 12:58N 25°57' W 080°08'0 0.0
2018-Feb-15 12:16N 25°57' W 080°08'0 0.0
2018-Feb-15 11:58N 25°57' W 080°08'0 0.0
2018-Feb-15 11:19N 25°57' W 080°08'0 0.0
2018-Feb-15 10:58N 25°57' W 080°08'0 0.0
2018-Feb-15 10:16N 25°57' W 080°08'0 0.0
2018-Feb-15 09:52N 25°57' W 080°08'0 0.0
2018-Feb-15 09:22N 25°57' W 080°08'0 0.0
2018-Feb-15 08:52N 25°57' W 080°08'0 0.0
2018-Feb-15 08:16N 25°57' W 080°08'0 0.0
2018-Feb-15 07:52N 25°57' W 080°08'0 0.0
2018-Feb-15 07:22N 25°57' W 080°08'0 0.0
2018-Feb-15 06:55N 25°57' W 080°08'0 0.0
2018-Feb-15 06:25N 25°57' W 080°08'0 0.0
2018-Feb-15 05:52N 25°57' W 080°08'0 0.0
2018-Feb-15 05:25N 25°57' W 080°08'0 0.0
2018-Feb-15 04:55N 25°57' W 080°08'0 0.0
2018-Feb-15 04:25N 25°57' W 080°08'0 0.0
2018-Feb-15 03:58N 25°57' W 080°08'0 0.0
2018-Feb-15 03:28N 25°57' W 080°08'0 0.0
2018-Feb-15 02:58N 25°57' W 080°08'0 0.0
2018-Feb-15 02:28N 25°57' W 080°08'0 0.0
2018-Feb-15 01:58N 25°57' W 080°08'0 0.0
2018-Feb-15 01:28N 25°57' W 080°08'0 0.0
2018-Feb-15 00:58N 25°57' W 080°08'0 0.0
2018-Feb-15 00:28N 25°57' W 080°08'0 0.0
2018-Feb-14 23:58N 25°57' W 080°08'0 0.0
2018-Feb-14 23:28N 25°57' W 080°08'0 0.0
2018-Feb-14 22:58N 25°57' W 080°08'0 0.0
2018-Feb-14 22:16N 25°57' W 080°08'0 0.0
2018-Feb-14 21:58N 25°57' W 080°08'0 0.0
2018-Feb-14 21:28N 25°57' W 080°08'0 0.0
2018-Feb-14 20:49N 25°57' W 080°08'0 0.0
2018-Feb-14 20:19N 25°57' W 080°08'0 0.0
2018-Feb-14 19:49N 25°57' W 080°08'0 0.0
2018-Feb-14 19:22N 25°57' W 080°08'0 0.0
2018-Feb-14 18:52N 25°57' W 080°08'0 0.0
2018-Feb-14 18:22N 25°57' W 080°08'0 0.0
2018-Feb-14 17:49N 25°57' W 080°08'0 0.0
2018-Feb-14 17:25N 25°57' W 080°08'0 0.0
2018-Feb-14 16:52N 25°57' W 080°08'0 0.0
2018-Feb-14 16:25N 25°57' W 080°08'0 0.0
2018-Feb-14 15:55N 25°57' W 080°08'0 0.0
2018-Feb-14 15:22N 25°57' W 080°08'0 0.0
2018-Feb-14 14:52N 25°57' W 080°08'0 0.0
2018-Feb-14 14:25N 25°57' W 080°08'0 0.0
2018-Feb-14 13:58N 25°57' W 080°08'0 0.0
2018-Feb-14 13:28N 25°57' W 080°08'0 0.0
2018-Feb-14 12:58N 25°57' W 080°08'0 0.0
2018-Feb-14 12:28N 25°57' W 080°08'0 0.0
2018-Feb-14 11:58N 25°57' W 080°08'0 0.0
2018-Feb-14 11:25N 25°57' W 080°08'0 0.0
2018-Feb-14 10:58N 25°57' W 080°08'0 0.0
2018-Feb-14 10:28N 25°57' W 080°08'0 0.0
2018-Feb-14 09:58N 25°57' W 080°08'0 0.0
2018-Feb-14 09:28N 25°57' W 080°08'0 0.0
2018-Feb-14 08:58N 25°57' W 080°08'0 0.0
2018-Feb-14 08:28N 25°57' W 080°08'0 0.0
2018-Feb-14 07:58N 25°57' W 080°08'0 0.0
2018-Feb-14 07:28N 25°57' W 080°08'0 0.0
2018-Feb-14 06:46N 25°57' W 080°08'0 0.0
2018-Feb-14 06:19N 25°57' W 080°08'0 0.0
2018-Feb-14 05:37N 25°57' W 080°08'0 0.0
2018-Feb-14 05:22N 25°57' W 080°08'0 0.0
2018-Feb-14 04:52N 25°57' W 080°08'0 0.0
2018-Feb-14 04:19N 25°57' W 080°08'0 0.0
2018-Feb-14 03:52N 25°57' W 080°08'0 0.0
2018-Feb-14 03:22N 25°57' W 080°08'0 0.0
2018-Feb-14 02:52N 25°57' W 080°08'0 0.0
2018-Feb-14 02:25N 25°57' W 080°08'0 0.0
2018-Feb-14 01:55N 25°57' W 080°08'0 0.0
2018-Feb-14 01:25N 25°57' W 080°08'0 0.0
2018-Feb-14 00:55N 25°57' W 080°08'0 0.0
2018-Feb-14 00:25N 25°57' W 080°08'0 0.0
2018-Feb-13 23:58N 25°57' W 080°08'0 0.0
2018-Feb-13 23:25N 25°57' W 080°08'0 0.0
2018-Feb-13 22:58N 25°57' W 080°08'0 0.0
2018-Feb-13 22:28N 25°57' W 080°08'0 0.0
2018-Feb-13 21:58N 25°57' W 080°08'0 0.0
2018-Feb-13 21:28N 25°57' W 080°08'0 0.0
2018-Feb-13 20:58N 25°57' W 080°08'0 0.0
2018-Feb-13 20:28N 25°57' W 080°08'0 0.0
2018-Feb-13 19:58N 25°57' W 080°08'0 0.0
2018-Feb-13 19:28N 25°57' W 080°08'0 0.0
2018-Feb-13 18:58N 25°57' W 080°08'0 0.0
2018-Feb-13 18:28N 25°57' W 080°08'0 0.0
2018-Feb-13 17:58N 25°57' W 080°08'0 0.0
2018-Feb-13 17:16N 25°57' W 080°08'0 0.0
2018-Feb-13 16:49N 25°57' W 080°08'0 0.0
2018-Feb-13 16:19N 25°57' W 080°08'0 0.0
2018-Feb-13 15:52N 25°57' W 080°08'0 0.0
2018-Feb-13 15:22N 25°57' W 080°08'0 0.0
2018-Feb-13 14:52N 25°57' W 080°08'0 0.0
2018-Feb-13 14:22N 25°57' W 080°08'0 0.0
2018-Feb-13 13:52N 25°57' W 080°08'0 0.0
2018-Feb-13 13:25N 25°57' W 080°08'0 0.0
2018-Feb-13 12:55N 25°57' W 080°08'0 0.0
2018-Feb-13 12:25N 25°57' W 080°08'0 0.0
2018-Feb-13 11:52N 25°57' W 080°08'0 0.0
2018-Feb-13 11:25N 25°57' W 080°08'0 0.0
2018-Feb-13 10:55N 25°57' W 080°08'0 0.0
2018-Feb-13 10:25N 25°57' W 080°08'0 0.0
2018-Feb-13 09:55N 25°57' W 080°08'0 0.0
2018-Feb-13 09:28N 25°57' W 080°08'0 0.0
2018-Feb-13 08:58N 25°57' W 080°08'0 0.0
2018-Feb-13 08:28N 25°57' W 080°08'0 0.0
2018-Feb-13 07:58N 25°57' W 080°08'0 0.0
2018-Feb-13 07:28N 25°57' W 080°08'0 0.0
2018-Feb-13 06:58N 25°57' W 080°08'0 0.0
2018-Feb-13 06:28N 25°57' W 080°08'0 0.0
2018-Feb-13 05:58N 25°57' W 080°08'0 0.0
2018-Feb-13 05:16N 25°57' W 080°08'0 0.0
2018-Feb-13 04:49N 25°57' W 080°08'0 0.0
2018-Feb-13 04:28N 25°57' W 080°08'0 0.0
2018-Feb-13 03:58N 25°57' W 080°08'0 0.0
2018-Feb-13 03:19N 25°57' W 080°08'0 0.0
2018-Feb-13 02:49N 25°57' W 080°08'0 0.0
2018-Feb-13 02:19N 25°57' W 080°08'0 0.0
2018-Feb-13 01:52N 25°57' W 080°08'0 0.0
2018-Feb-13 01:22N 25°57' W 080°08'0 0.0
2018-Feb-13 00:52N 25°57' W 080°08'0 0.0
2018-Feb-13 00:22N 25°57' W 080°08'0 0.0
2018-Feb-12 23:52N 25°57' W 080°08'0 0.0
2018-Feb-12 23:25N 25°57' W 080°08'0 0.0
2018-Feb-12 22:55N 25°57' W 080°08'0 0.0
2018-Feb-12 22:25N 25°57' W 080°08'0 0.0
2018-Feb-12 21:55N 25°57' W 080°08'0 0.0
2018-Feb-12 21:25N 25°57' W 080°08'0 0.0
2018-Feb-12 20:52N 25°57' W 080°08'0 0.0
2018-Feb-12 20:28N 25°57' W 080°08'0 0.0
2018-Feb-12 19:58N 25°57' W 080°08'0 0.1
2018-Feb-12 19:30N 25°57' W 080°08'3 6.0
2018-Feb-12 19:00N 25°54' W 080°08'4 8.9
2018-Feb-12 18:31N 25°51' W 080°10'3 6.9
2018-Feb-12 18:01N 25°47' W 080°11'0 0.5
2018-Feb-12 17:28N 25°47' W 080°11'0 0.0
2018-Feb-12 16:52N 25°47' W 080°11'0 0.0
2018-Feb-12 16:28N 25°47' W 080°11'0 0.0
2018-Feb-12 15:58N 25°47' W 080°11'0 0.0
2018-Feb-12 15:13N 25°47' W 080°11'0 0.0
2018-Feb-12 14:58N 25°47' W 080°11'0 0.0
2018-Feb-12 14:25N 25°47' W 080°11'0 0.0
2018-Feb-12 13:55N 25°47' W 080°11'0 0.0
2018-Feb-12 13:28N 25°47' W 080°11'0 0.0
2018-Feb-12 12:55N 25°47' W 080°11'0 0.0
2018-Feb-12 12:19N 25°47' W 080°11'0 0.0
2018-Feb-12 11:58N 25°47' W 080°11'0 0.0
2018-Feb-12 11:28N 25°47' W 080°11'0 0.0
2018-Feb-12 10:58N 25°47' W 080°11'0 0.0
2018-Feb-12 10:25N 25°47' W 080°11'0 0.0
2018-Feb-12 09:49N 25°47' W 080°11'0 0.0
2018-Feb-12 09:25N 25°47' W 080°11'0 0.0
2018-Feb-12 08:49N 25°47' W 080°11'0 0.0
2018-Feb-12 08:22N 25°47' W 080°11'0 0.0
2018-Feb-12 07:58N 25°47' W 080°11'0 0.0
2018-Feb-12 07:19N 25°47' W 080°11'0 0.0
2018-Feb-12 06:58N 25°47' W 080°11'0 0.0
2018-Feb-12 06:25N 25°47' W 080°11'0 0.0
2018-Feb-12 05:52N 25°47' W 080°11'0 0.0
2018-Feb-12 05:28N 25°47' W 080°11'0 0.0
2018-Feb-12 04:28N 25°47' W 080°11'0 0.0
2018-Feb-12 03:55N 25°47' W 080°11'0 0.0
2018-Feb-12 03:25N 25°47' W 080°11'6 9.4
2018-Feb-12 02:49N 25°53' W 080°11'616.2
2018-Feb-12 02:28N 25°47' W 080°11'0 0.0
2018-Feb-12 01:46N 25°47' W 080°11'0 0.0
2018-Feb-12 01:25N 25°47' W 080°11'0 0.0
2018-Feb-12 00:49N 25°47' W 080°11'0 0.0
2018-Feb-12 00:25N 25°47' W 080°11'0 0.0
2018-Feb-11 23:55N 25°47' W 080°11'0 0.0
2018-Feb-11 23:28N 25°47' W 080°11'0 0.0
2018-Feb-11 22:55N 25°47' W 080°11'0 0.0
2018-Feb-11 22:25N 25°47' W 080°11'0 0.0
2018-Feb-11 21:34N 25°47' W 080°11'0 0.1
2018-Feb-11 21:28N 25°47' W 080°11'0 0.0
2018-Feb-11 20:52N 25°47' W 080°11'0 0.0
2018-Feb-11 20:28N 25°47' W 080°11'0 0.0
2018-Feb-11 19:58N 25°47' W 080°11'0 0.0
2018-Feb-11 19:25N 25°47' W 080°11'0 0.0
2018-Feb-11 18:55N 25°47' W 080°11'0 0.0
2018-Feb-11 18:28N 25°47' W 080°11'0 0.0
2018-Feb-11 17:28N 25°47' W 080°11'0 0.0
2018-Feb-11 16:46N 25°47' W 080°11'0 0.0
2018-Feb-11 16:22N 25°47' W 080°11'0 0.0
2018-Feb-11 14:55N 25°47' W 080°11'0 0.0
2018-Feb-11 14:28N 25°47' W 080°11'0 0.0
2018-Feb-11 13:55N 25°47' W 080°11'0 0.0
2018-Feb-11 13:28N 25°47' W 080°11'0 0.0
2018-Feb-11 12:58N 25°47' W 080°11'0 0.0
2018-Feb-11 12:25N 25°47' W 080°11'0 0.0
2018-Feb-11 11:55N 25°47' W 080°11'0 0.0
2018-Feb-11 11:22N 25°47' W 080°11'0 0.0
2018-Feb-11 10:55N 25°47' W 080°11'0 0.0
2018-Feb-11 10:28N 25°47' W 080°11'0 0.0
2018-Feb-11 09:55N 25°47' W 080°11'0 0.0
2018-Feb-11 09:28N 25°47' W 080°11'0 0.0
2018-Feb-11 08:58N 25°47' W 080°11'0 0.0
2018-Feb-11 08:25N 25°47' W 080°11'0 0.0
2018-Feb-11 07:55N 25°47' W 080°11'0 0.0
2018-Feb-11 07:16N 25°47' W 080°11'0 0.0
2018-Feb-11 06:58N 25°47' W 080°11'0 0.0
2018-Feb-11 06:25N 25°47' W 080°11'0 0.0
2018-Feb-11 05:55N 25°47' W 080°11'0 0.0
2018-Feb-11 05:19N 25°47' W 080°11'0 0.0
2018-Feb-11 04:49N 25°47' W 080°11'0 0.0
2018-Feb-11 04:28N 25°47' W 080°11'0 0.0
2018-Feb-11 03:49N 25°47' W 080°11'0 0.0
2018-Feb-11 03:28N 25°47' W 080°11'0 0.0
2018-Feb-11 02:58N 25°47' W 080°11'0 0.0
2018-Feb-11 02:13N 25°47' W 080°11'0 0.0
2018-Feb-11 01:52N 25°47' W 080°11'0 0.0
2018-Feb-11 01:25N 25°47' W 080°11'0 0.0
2018-Feb-11 00:49N 25°47' W 080°11'0 0.0
2018-Feb-11 00:19N 25°47' W 080°11'0 0.0
2018-Feb-10 23:46N 25°47' W 080°11'0 0.0
2018-Feb-10 23:10N 25°47' W 080°11'0 0.0
2018-Feb-10 22:55N 25°47' W 080°11'0 0.0
2018-Feb-10 21:34N 25°47' W 080°11'0 0.0
2018-Feb-10 21:13N 25°47' W 080°11'0 0.0
2018-Feb-10 20:58N 25°47' W 080°11'0 0.0
2018-Feb-10 20:28N 25°47' W 080°11'0 0.0
2018-Feb-10 19:55N 25°47' W 080°11'0 0.0
2018-Feb-10 19:28N 25°47' W 080°11'0 0.0
2018-Feb-10 18:55N 25°47' W 080°11'0 0.0
2018-Feb-10 18:19N 25°47' W 080°11'0 0.0
2018-Feb-10 17:58N 25°47' W 080°11'0 0.0
2018-Feb-10 17:28N 25°47' W 080°11'0 0.0
2018-Feb-10 16:52N 25°47' W 080°11'0 0.0
2018-Feb-10 16:25N 25°47' W 080°11'0 0.0
2018-Feb-10 15:52N 25°47' W 080°11'0 0.0
2018-Feb-10 15:28N 25°47' W 080°11'0 0.0
2018-Feb-10 14:58N 25°47' W 080°11'0 0.0
2018-Feb-10 14:28N 25°47' W 080°11'0 0.0
2018-Feb-10 13:58N 25°47' W 080°11'0 0.0
2018-Feb-10 13:28N 25°47' W 080°11'0 0.0
2018-Feb-10 12:55N 25°47' W 080°11'0 0.0
2018-Feb-10 12:28N 25°47' W 080°11'0 0.0
2018-Feb-10 11:58N 25°47' W 080°11'0 0.0
2018-Feb-10 11:28N 25°47' W 080°11'0 0.0
2018-Feb-10 10:58N 25°47' W 080°11'0 0.0
2018-Feb-10 10:13N 25°47' W 080°11'0 0.0
2018-Feb-10 09:49N 25°47' W 080°11'0 0.0
2018-Feb-10 09:25N 25°47' W 080°11'0 0.0
2018-Feb-10 08:55N 25°47' W 080°11'0 0.0
2018-Feb-10 08:25N 25°47' W 080°11'0 0.0
2018-Feb-10 07:58N 25°47' W 080°11'0 0.0
2018-Feb-10 07:25N 25°47' W 080°11'0 0.0
2018-Feb-10 06:58N 25°47' W 080°11'0 0.0
2018-Feb-10 06:25N 25°47' W 080°11'0 0.0
2018-Feb-10 05:58N 25°47' W 080°11'0 0.0
2018-Feb-10 05:28N 25°47' W 080°11'0 0.0
2018-Feb-10 04:52N 25°47' W 080°11'0 0.0
2018-Feb-10 04:25N 25°47' W 080°11'0 0.0
2018-Feb-10 03:55N 25°47' W 080°11'0 0.0
2018-Feb-10 03:25N 25°47' W 080°11'0 0.0
2018-Feb-10 02:55N 25°47' W 080°11'0 0.0
2018-Feb-10 02:25N 25°47' W 080°11'0 0.0
2018-Feb-10 01:58N 25°47' W 080°11'0 0.0
2018-Feb-10 01:28N 25°47' W 080°11'0 0.0
2018-Feb-10 00:58N 25°47' W 080°11'0 0.0
2018-Feb-10 00:28N 25°47' W 080°11'0 0.0
2018-Feb-09 23:58N 25°47' W 080°11'0 0.0
2018-Feb-09 23:25N 25°47' W 080°11'0 0.0
2018-Feb-09 22:58N 25°47' W 080°11'0 0.0
2018-Feb-09 22:43N 25°47' W 080°11'  

Dump ship's entire track history